Time;durP1;ratioP1;P1;durP2;ratioP2;P2;SDS_P1;SDS_P2;PMS_P1;PMS_P2;Temp;Humidity;BMP_temperature;BMP_pressure;BME280_temperature;BME280_humidity;BME280_pressure;Samples;Min_cycle;Max_cycle;Signal;HPM_P1;HPM_P2
2022/09/25 00:01:48;;;;;;;31.60;20.63;;;;;;;;;;4994344;28;20694;-62
2022/09/25 00:04:15;;;;;;;28.80;20.57;;;;;;;;;;5024180;28;20200;-62
2022/09/25 00:06:41;;;;;;;36.50;24.20;;;;;;;;;;5029755;28;20209;-62
2022/09/25 00:09:08;;;;;;;39.33;23.97;;;;;;;;;;5030322;28;20253;-62
2022/09/25 00:11:37;;;;;;;39.33;24.40;;;;;;;;;;5027852;28;20229;-61
2022/09/25 00:14:04;;;;;;;33.60;22.13;;;;;;;;;;5028192;28;20524;-62
2022/09/25 00:16:31;;;;;;;27.40;20.33;;;;;;;;;;5026758;28;20195;-62
2022/09/25 00:21:43;;;;;;;25.77;18.90;;;;;;;;;;5027749;28;20190;-62
2022/09/25 00:24:11;;;;;;;25.50;18.47;;;;;;;;;;5027608;28;20192;-61
2022/09/25 00:26:39;;;;;;;27.37;18.37;;;;;;;;;;5026217;28;20207;-62
2022/09/25 00:29:06;;;;;;;30.43;19.43;;;;;;;;;;5028616;28;20187;-62
2022/09/25 00:31:32;;;;;;;27.30;19.07;;;;;;;;;;5027203;28;20242;-62
2022/09/25 00:34:00;;;;;;;26.77;19.10;;;;;;;;;;5027807;28;20199;-62
2022/09/25 00:36:27;;;;;;;27.57;19.80;;;;;;;;;;5027858;28;20204;-62
2022/09/25 00:38:53;;;;;;;25.97;19.60;;;;;;;;;;5027971;28;20196;-62
2022/09/25 00:41:21;;;;;;;25.03;18.23;;;;;;;;;;5026222;28;20195;-63
2022/09/25 00:43:49;;;;;;;24.83;19.17;;;;;;;;;;5027326;28;20192;-62
2022/09/25 00:46:35;;;;;;;29.77;20.00;;;;;;;;;;5015073;28;20192;-62
2022/09/25 00:49:06;;;;;;;25.17;18.63;;;;;;;;;;5013674;28;20195;-62
2022/09/25 00:51:42;;;;;;;25.87;18.63;;;;;;;;;;5031070;28;20195;-62
2022/09/25 00:54:09;;;;;;;24.63;18.47;;;;;;;;;;5031262;28;20195;-62
2022/09/25 00:56:37;;;;;;;23.80;18.63;;;;;;;;;;5029719;28;20229;-62
2022/09/25 00:59:04;;;;;;;26.03;17.63;;;;;;;;;;5031074;28;20202;-62
2022/09/25 01:01:30;;;;;;;23.07;17.37;;;;;;;;;;5031290;28;20693;-62
2022/09/25 01:03:58;;;;;;;24.63;17.17;;;;;;;;;;5031010;28;20242;-62
2022/09/25 01:06:24;;;;;;;26.10;17.80;;;;;;;;;;5014859;28;20188;-62
2022/09/25 01:08:51;;;;;;;24.20;16.93;;;;;;;;;;5030331;28;20219;-62
2022/09/25 01:11:18;;;;;;;25.23;17.73;;;;;;;;;;5030927;28;20196;-62
2022/09/25 01:13:44;;;;;;;27.03;16.73;;;;;;;;;;5030745;28;20203;-62
2022/09/25 01:16:19;;;;;;;26.50;18.63;;;;;;;;;;5028732;28;20566;-62
2022/09/25 01:18:49;;;;;;;28.10;17.27;;;;;;;;;;5011663;28;20209;-62
2022/09/25 01:21:37;;;;;;;21.40;15.83;;;;;;;;;;5031112;28;20191;-62
2022/09/25 01:24:17;;;;;;;27.67;19.17;;;;;;;;;;5009547;28;20602;-63
2022/09/25 01:27:02;;;;;;;28.13;20.07;;;;;;;;;;5027843;28;20195;-62
2022/09/25 01:29:39;;;;;;;28.23;18.67;;;;;;;;;;5029047;28;20714;-62
2022/09/25 01:32:24;;;;;;;28.63;19.17;;;;;;;;;;5030213;28;20673;-62
2022/09/25 01:35:05;;;;;;;27.17;18.50;;;;;;;;;;5011724;28;20223;-62
2022/09/25 01:37:35;;;;;;;25.50;18.43;;;;;;;;;;5011078;28;20218;-62
2022/09/25 01:40:07;;;;;;;26.97;17.67;;;;;;;;;;5030722;28;20192;-62
2022/09/25 01:42:36;;;;;;;22.87;16.17;;;;;;;;;;5029329;28;21883;-63
2022/09/25 01:45:06;;;;;;;21.83;16.10;;;;;;;;;;5028478;28;20783;-62
2022/09/25 01:47:36;;;;;;;25.03;17.00;;;;;;;;;;5028198;28;20232;-62
2022/09/25 01:50:07;;;;;;;26.50;16.87;;;;;;;;;;5027556;28;20225;-62
2022/09/25 01:52:40;;;;;;;19.53;16.20;;;;;;;;;;5014060;28;20290;-62
2022/09/25 01:55:21;;;;;;;21.03;16.40;;;;;;;;;;5028746;28;20738;-61
2022/09/25 01:57:50;;;;;;;25.33;16.70;;;;;;;;;;5028939;28;20273;-62
2022/09/25 02:00:20;;;;;;;24.83;15.40;;;;;;;;;;5011534;28;20210;-62
2022/09/25 02:02:54;;;;;;;24.03;15.93;;;;;;;;;;5029796;28;20555;-62
2022/09/25 02:05:45;;;;;;;19.63;14.67;;;;;;;;;;5029944;28;20190;-62
2022/09/25 02:08:33;;;;;;;24.80;16.07;;;;;;;;;;5024066;28;20258;-63
2022/09/25 02:11:03;;;;;;;23.63;16.50;;;;;;;;;;5029706;28;20318;-63
2022/09/25 02:13:36;;;;;;;21.73;17.13;;;;;;;;;;5029013;28;20203;-62
2022/09/25 02:16:04;;;;;;;25.03;16.47;;;;;;;;;;5010872;28;20226;-63
2022/09/25 02:21:27;;;;;;;19.73;14.67;;;;;;;;;;5029145;28;20224;-63
2022/09/25 02:23:57;;;;;;;21.97;14.80;;;;;;;;;;5029835;28;20245;-63
2022/09/25 02:26:25;;;;;;;23.00;15.77;;;;;;;;;;5028284;28;20253;-64
2022/09/25 02:28:52;;;;;;;17.70;13.77;;;;;;;;;;5028802;28;20217;-63
2022/09/25 02:31:20;;;;;;;20.30;15.17;;;;;;;;;;5029774;28;20267;-63
2022/09/25 02:33:46;;;;;;;22.43;16.60;;;;;;;;;;5011773;28;20211;-63
2022/09/25 02:36:19;;;;;;;18.57;14.80;;;;;;;;;;5030908;28;20202;-63
2022/09/25 02:38:46;;;;;;;20.33;15.33;;;;;;;;;;5029286;28;20298;-63
2022/09/25 02:41:31;;;;;;;21.17;14.90;;;;;;;;;;5030289;28;20168;-63
2022/09/25 02:44:06;;;;;;;20.90;15.53;;;;;;;;;;5029204;28;20203;-63
2022/09/25 02:46:33;;;;;;;25.03;14.93;;;;;;;;;;5028184;28;20284;-63
2022/09/25 02:49:02;;;;;;;20.03;15.77;;;;;;;;;;5018561;28;20257;-64
2022/09/25 02:51:42;;;;;;;20.57;13.63;;;;;;;;;;5010501;28;20274;-63
2022/09/25 02:54:09;;;;;;;22.03;15.07;;;;;;;;;;5027933;28;20191;-63
2022/09/25 02:56:40;;;;;;;21.77;15.43;;;;;;;;;;5029894;28;20623;-61
2022/09/25 02:59:08;;;;;;;22.30;15.47;;;;;;;;;;5027759;28;20192;-63
2022/09/25 03:01:35;;;;;;;21.13;14.73;;;;;;;;;;5029849;28;20574;-63
2022/09/25 03:04:02;;;;;;;21.80;14.67;;;;;;;;;;5028627;28;21097;-63
2022/09/25 03:06:29;;;;;;;18.77;14.43;;;;;;;;;;5028646;28;20214;-63
2022/09/25 03:08:56;;;;;;;21.80;14.17;;;;;;;;;;5028891;28;20750;-64
2022/09/25 03:11:23;;;;;;;17.97;13.03;;;;;;;;;;5026043;28;20199;-64
2022/09/25 03:13:56;;;;;;;20.27;14.27;;;;;;;;;;5028602;28;20218;-63
2022/09/25 03:16:25;;;;;;;19.37;14.47;;;;;;;;;;5026639;28;20192;-64
2022/09/25 03:18:52;;;;;;;18.27;14.40;;;;;;;;;;5027603;28;20621;-63
2022/09/25 03:21:19;;;;;;;25.97;15.87;;;;;;;;;;5028315;28;20247;-63
2022/09/25 03:23:45;;;;;;;22.80;17.33;;;;;;;;;;5012389;28;20255;-63
2022/09/25 03:26:12;;;;;;;22.23;15.63;;;;;;;;;;5037608;28;20211;-64
2022/09/25 03:28:39;;;;;;;20.27;15.47;;;;;;;;;;5040376;28;20226;-63
2022/09/25 03:31:06;;;;;;;20.80;16.17;;;;;;;;;;5023528;28;20219;-65
2022/09/25 03:33:34;;;;;;;19.57;15.17;;;;;;;;;;5027063;28;20234;-63
2022/09/25 03:36:05;;;;;;;19.57;15.27;;;;;;;;;;5028181;28;20230;-63
2022/09/25 03:38:32;;;;;;;21.30;16.20;;;;;;;;;;5028328;28;20192;-63
2022/09/25 03:40:59;;;;;;;22.47;15.97;;;;;;;;;;5028769;28;20191;-63
2022/09/25 03:43:26;;;;;;;19.73;15.40;;;;;;;;;;5026399;28;20210;-63
2022/09/25 03:45:52;;;;;;;22.30;16.57;;;;;;;;;;5029459;28;20250;-63
2022/09/25 03:48:20;;;;;;;24.47;16.83;;;;;;;;;;5020717;28;20571;-63
2022/09/25 03:50:48;;;;;;;20.27;15.53;;;;;;;;;;5019604;28;20183;-63
2022/09/25 03:53:17;;;;;;;20.20;15.13;;;;;;;;;;5027605;28;20274;-63
2022/09/25 03:55:47;;;;;;;19.97;15.73;;;;;;;;;;5028103;28;20203;-63
2022/09/25 03:58:14;;;;;;;20.87;16.30;;;;;;;;;;5028156;28;20246;-63
2022/09/25 04:00:41;;;;;;;21.23;15.80;;;;;;;;;;5029251;28;20191;-63
2022/09/25 04:03:08;;;;;;;21.67;16.17;;;;;;;;;;5028263;28;20183;-63
2022/09/25 04:05:35;;;;;;;19.47;14.53;;;;;;;;;;5028259;28;20191;-63
2022/09/25 04:08:02;;;;;;;21.13;14.90;;;;;;;;;;5025670;28;20326;-63
2022/09/25 04:10:29;;;;;;;19.63;15.23;;;;;;;;;;5028218;28;20597;-63
2022/09/25 04:12:56;;;;;;;20.47;14.77;;;;;;;;;;5026908;28;20192;-64
2022/09/25 04:15:22;;;;;;;21.87;13.87;;;;;;;;;;5010574;28;20187;-62
2022/09/25 04:17:50;;;;;;;19.30;13.40;;;;;;;;;;5026069;28;20218;-62
2022/09/25 04:20:16;;;;;;;18.40;13.77;;;;;;;;;;5026606;28;20195;-62
2022/09/25 04:22:43;;;;;;;22.37;15.03;;;;;;;;;;5019801;28;20199;-63
2022/09/25 04:25:10;;;;;;;20.07;13.70;;;;;;;;;;5023023;28;20188;-64
2022/09/25 04:27:37;;;;;;;18.83;14.20;;;;;;;;;;5024479;28;20245;-63
2022/09/25 04:30:04;;;;;;;21.13;14.60;;;;;;;;;;5023809;28;20234;-63
2022/09/25 04:35:17;;;;;;;18.77;13.70;;;;;;;;;;5021486;28;21111;-62
2022/09/25 04:37:44;;;;;;;18.90;12.70;;;;;;;;;;5024393;28;20210;-63
2022/09/25 04:40:11;;;;;;;20.67;15.00;;;;;;;;;;5024403;28;20195;-63
2022/09/25 04:42:38;;;;;;;17.50;13.40;;;;;;;;;;5023093;28;20193;-64
2022/09/25 04:45:06;;;;;;;17.60;13.17;;;;;;;;;;5025724;28;20234;-63
2022/09/25 04:47:32;;;;;;;18.73;12.70;;;;;;;;;;5022425;28;20191;-62
2022/09/25 04:49:59;;;;;;;19.13;13.80;;;;;;;;;;5024968;28;20187;-62
2022/09/25 04:52:28;;;;;;;19.30;14.77;;;;;;;;;;5022446;28;20207;-61
2022/09/25 04:54:55;;;;;;;18.77;15.20;;;;;;;;;;5024520;28;20199;-62
2022/09/25 04:57:22;;;;;;;22.80;15.37;;;;;;;;;;5024045;28;20312;-64
2022/09/25 05:00:09;;;;;;;17.83;14.07;;;;;;;;;;5024443;28;20198;-63
2022/09/25 05:02:36;;;;;;;23.33;14.30;;;;;;;;;;5021787;28;20200;-61
2022/09/25 05:05:03;;;;;;;20.00;13.50;;;;;;;;;;5021564;28;20736;-62
2022/09/25 05:07:30;;;;;;;19.57;12.83;;;;;;;;;;5021478;28;20187;-62
2022/09/25 05:09:57;;;;;;;19.30;12.60;;;;;;;;;;5028496;28;20269;-63
2022/09/25 05:12:24;;;;;;;18.67;12.70;;;;;;;;;;5026576;28;20203;-62
2022/09/25 05:14:51;;;;;;;18.50;13.60;;;;;;;;;;5018320;28;20227;-62
2022/09/25 05:17:17;;;;;;;21.63;14.80;;;;;;;;;;5027188;28;20188;-62
2022/09/25 05:19:44;;;;;;;19.17;13.60;;;;;;;;;;5027373;28;20766;-63
2022/09/25 05:22:11;;;;;;;22.37;14.87;;;;;;;;;;5010745;28;20199;-63
2022/09/25 05:24:38;;;;;;;22.20;16.03;;;;;;;;;;5024658;28;20200;-62
2022/09/25 05:27:04;;;;;;;21.40;15.13;;;;;;;;;;5036192;28;20191;-62
2022/09/25 05:29:31;;;;;;;20.60;14.97;;;;;;;;;;5017878;28;20239;-63
2022/09/25 05:31:58;;;;;;;19.70;14.63;;;;;;;;;;5043319;28;20304;-62
2022/09/25 05:34:25;;;;;;;25.27;17.43;;;;;;;;;;5026857;28;20219;-63
2022/09/25 05:36:51;;;;;;;29.30;17.57;;;;;;;;;;5027839;28;20255;-63
2022/09/25 05:39:18;;;;;;;23.87;16.77;;;;;;;;;;5029783;28;20191;-63
2022/09/25 05:41:45;;;;;;;21.17;16.00;;;;;;;;;;5028283;28;20192;-63
2022/09/25 05:44:11;;;;;;;25.03;16.83;;;;;;;;;;5026611;28;20194;-62
2022/09/25 05:46:39;;;;;;;23.13;17.10;;;;;;;;;;5026623;28;20207;-63
2022/09/25 05:49:06;;;;;;;24.83;17.13;;;;;;;;;;5027040;28;20211;-63
2022/09/25 05:51:32;;;;;;;25.53;17.30;;;;;;;;;;5023774;28;20195;-63
2022/09/25 05:53:59;;;;;;;25.50;18.27;;;;;;;;;;5023165;28;20586;-63
2022/09/25 05:56:26;;;;;;;25.30;16.93;;;;;;;;;;5027533;28;20242;-63
2022/09/25 05:58:54;;;;;;;27.73;18.33;;;;;;;;;;5019766;28;20265;-63
2022/09/25 06:01:21;;;;;;;24.70;18.03;;;;;;;;;;5024288;28;20192;-63
2022/09/25 06:03:48;;;;;;;26.97;18.53;;;;;;;;;;5019889;28;20198;-64
2022/09/25 06:06:15;;;;;;;26.37;17.93;;;;;;;;;;5023715;28;21187;-63
2022/09/25 06:08:41;;;;;;;27.23;16.63;;;;;;;;;;5020227;28;20234;-64
2022/09/25 06:11:08;;;;;;;25.80;14.77;;;;;;;;;;5023587;28;20214;-64
2022/09/25 06:13:36;;;;;;;21.93;14.13;;;;;;;;;;5021271;28;20655;-64
2022/09/25 06:16:04;;;;;;;17.97;12.97;;;;;;;;;;5022800;28;20188;-64
2022/09/25 06:18:32;;;;;;;19.80;12.87;;;;;;;;;;5022649;28;20234;-64
2022/09/25 06:21:00;;;;;;;14.90;11.07;;;;;;;;;;5023520;28;20782;-63
2022/09/25 06:23:27;;;;;;;15.70;11.50;;;;;;;;;;5020964;28;20603;-63
2022/09/25 06:25:53;;;;;;;13.17;11.00;;;;;;;;;;5021583;28;20682;-63
2022/09/25 06:28:20;;;;;;;16.10;10.90;;;;;;;;;;5023198;28;20802;-63
2022/09/25 06:30:47;;;;;;;18.70;12.17;;;;;;;;;;5022909;28;20233;-64
2022/09/25 06:33:14;;;;;;;14.83;12.00;;;;;;;;;;5020883;28;20227;-64
2022/09/25 06:35:42;;;;;;;15.70;11.60;;;;;;;;;;5022253;28;20187;-63
2022/09/25 06:38:09;;;;;;;15.97;11.60;;;;;;;;;;5022681;28;20187;-63
2022/09/25 06:40:36;;;;;;;18.80;12.20;;;;;;;;;;5019812;28;20822;-63
2022/09/25 06:43:03;;;;;;;17.57;12.97;;;;;;;;;;5020213;28;20650;-62
2022/09/25 06:45:32;;;;;;;16.30;12.97;;;;;;;;;;5022336;28;20706;-62
2022/09/25 06:48:09;;;;;;;17.07;12.70;;;;;;;;;;5021675;28;20211;-61
2022/09/25 06:50:42;;;;;;;18.17;13.53;;;;;;;;;;5021255;28;20199;-63
2022/09/25 06:53:10;;;;;;;18.87;13.73;;;;;;;;;;5019337;28;20199;-65
2022/09/25 06:55:36;;;;;;;16.67;13.20;;;;;;;;;;5022058;28;20191;-63
2022/09/25 06:58:03;;;;;;;17.83;12.83;;;;;;;;;;5021288;28;20261;-64
2022/09/25 07:00:31;;;;;;;15.97;12.37;;;;;;;;;;5022428;28;20222;-65
2022/09/25 07:05:43;;;;;;;15.97;11.70;;;;;;;;;;5022744;28;20191;-63
2022/09/25 07:08:12;;;;;;;13.77;10.80;;;;;;;;;;5020900;28;20261;-64
2022/09/25 07:10:39;;;;;;;14.13;11.40;;;;;;;;;;5021177;28;20203;-63
2022/09/25 07:13:11;;;;;;;14.60;10.90;;;;;;;;;;5017958;28;20226;-63
2022/09/25 07:15:38;;;;;;;16.00;10.90;;;;;;;;;;5021058;28;20188;-64
2022/09/25 07:18:05;;;;;;;16.00;11.10;;;;;;;;;;5021525;28;20204;-64
2022/09/25 07:20:32;;;;;;;15.57;11.23;;;;;;;;;;5021552;28;20191;-63
2022/09/25 07:23:02;;;;;;;14.47;11.37;;;;;;;;;;5019705;28;20678;-63
2022/09/25 07:25:32;;;;;;;13.00;10.17;;;;;;;;;;5021389;28;20282;-63
2022/09/25 07:27:59;;;;;;;14.47;10.77;;;;;;;;;;5021833;28;20195;-64
2022/09/25 07:30:27;;;;;;;14.60;10.80;;;;;;;;;;5023768;28;20235;-63
2022/09/25 07:32:54;;;;;;;15.83;11.13;;;;;;;;;;5027320;28;20223;-63
2022/09/25 07:35:28;;;;;;;14.63;10.67;;;;;;;;;;5027648;28;20250;-63
2022/09/25 07:37:56;;;;;;;13.87;10.77;;;;;;;;;;5027981;28;20199;-64
2022/09/25 07:40:25;;;;;;;12.23;10.17;;;;;;;;;;5029467;28;20179;-63
2022/09/25 07:42:52;;;;;;;14.80;10.27;;;;;;;;;;5017471;28;20196;-63
2022/09/25 07:45:19;;;;;;;12.67;9.80;;;;;;;;;;5007964;28;20226;-63
2022/09/25 07:47:45;;;;;;;13.50;9.83;;;;;;;;;;5020151;28;20204;-63
2022/09/25 07:50:12;;;;;;;13.27;10.20;;;;;;;;;;5028173;28;20576;-64
2022/09/25 07:52:41;;;;;;;12.23;9.23;;;;;;;;;;5014138;28;20257;-63
2022/09/25 07:55:08;;;;;;;11.13;9.57;;;;;;;;;;5028214;28;20202;-63
2022/09/25 07:57:40;;;;;;;13.37;9.47;;;;;;;;;;5028861;28;20195;-63
2022/09/25 08:00:07;;;;;;;11.07;9.20;;;;;;;;;;5024478;28;20682;-63
2022/09/25 08:02:37;;;;;;;10.70;8.67;;;;;;;;;;5030581;28;21011;-63
2022/09/25 08:05:04;;;;;;;10.37;8.50;;;;;;;;;;5035157;28;20194;-63
2022/09/25 08:07:31;;;;;;;10.80;8.70;;;;;;;;;;5034126;28;20610;-63
2022/09/25 08:09:58;;;;;;;10.70;8.97;;;;;;;;;;5034278;28;20211;-63
2022/09/25 08:12:25;;;;;;;10.77;9.10;;;;;;;;;;5034247;28;20319;-63
2022/09/25 08:14:52;;;;;;;12.73;10.27;;;;;;;;;;5039584;28;20191;-63
2022/09/25 08:17:21;;;;;;;11.53;9.83;;;;;;;;;;5033139;28;20183;-63
2022/09/25 08:19:48;;;;;;;14.10;10.03;;;;;;;;;;5030810;28;20202;-64
2022/09/25 08:22:15;;;;;;;10.03;8.23;;;;;;;;;;5024596;28;20192;-63
2022/09/25 08:24:42;;;;;;;8.83;7.60;;;;;;;;;;5034190;28;20195;-64
2022/09/25 08:27:09;;;;;;;7.80;7.10;;;;;;;;;;5033424;28;20195;-63
2022/09/25 08:29:35;;;;;;;8.43;7.20;;;;;;;;;;5031899;28;20279;-63
2022/09/25 08:32:02;;;;;;;9.17;7.23;;;;;;;;;;5033661;28;20223;-63
2022/09/25 08:34:30;;;;;;;7.37;6.67;;;;;;;;;;5033333;28;20585;-64
2022/09/25 08:37:14;;;;;;;7.47;6.23;;;;;;;;;;5028407;28;20732;-63
2022/09/25 08:39:41;;;;;;;8.73;6.77;;;;;;;;;;5034590;28;20224;-64
2022/09/25 08:42:13;;;;;;;8.20;5.40;;;;;;;;;;5033563;28;20662;-64
2022/09/25 08:44:44;;;;;;;8.67;5.63;;;;;;;;;;4995744;28;20608;-63
2022/09/25 08:50:22;;;;;;;6.17;5.47;;;;;;;;;;5034767;28;20241;-64
2022/09/25 08:52:54;;;;;;;6.10;5.50;;;;;;;;;;5032701;28;20191;-63
2022/09/25 08:55:23;;;;;;;5.80;5.20;;;;;;;;;;5017484;28;20282;-64
2022/09/25 08:58:18;;;;;;;6.27;5.40;;;;;;;;;;5029561;28;20958;-63
2022/09/25 09:00:45;;;;;;;6.40;5.27;;;;;;;;;;5024069;28;20909;-64
2022/09/25 09:03:12;;;;;;;7.10;4.77;;;;;;;;;;5025848;28;20752;-64
2022/09/25 09:05:39;;;;;;;5.97;4.97;;;;;;;;;;5025289;28;20306;-63
2022/09/25 09:08:12;;;;;;;6.07;4.73;;;;;;;;;;5027193;28;20821;-62
2022/09/25 09:10:58;;;;;;;5.20;4.70;;;;;;;;;;5022204;28;20214;-62
2022/09/25 09:13:32;;;;;;;5.80;4.43;;;;;;;;;;5021840;28;20198;-63
2022/09/25 09:16:17;;;;;;;6.03;4.47;;;;;;;;;;5022315;28;20972;-63
2022/09/25 09:18:44;;;;;;;7.23;4.30;;;;;;;;;;5023383;28;20192;-63
2022/09/25 09:21:26;;;;;;;6.43;4.17;;;;;;;;;;5023398;28;20689;-62
2022/09/25 09:23:52;;;;;;;9.03;4.50;;;;;;;;;;5022272;28;20199;-63
2022/09/25 09:26:19;;;;;;;6.20;4.50;;;;;;;;;;5023756;28;20218;-63
2022/09/25 09:28:53;;;;;;;6.10;4.43;;;;;;;;;;5021577;28;20200;-63
2022/09/25 09:31:43;;;;;;;5.73;4.27;;;;;;;;;;5021545;28;20241;-67
2022/09/25 09:34:16;;;;;;;4.93;3.77;;;;;;;;;;5003313;28;20219;-62
2022/09/25 09:37:06;;;;;;;3.87;3.47;;;;;;;;;;5002940;28;20212;-62
2022/09/25 09:39:41;;;;;;;3.20;2.80;;;;;;;;;;4998342;28;20299;-63
2022/09/25 09:42:17;;;;;;;3.03;2.63;;;;;;;;;;5017349;28;20853;-63
2022/09/25 09:45:19;;;;;;;3.00;2.70;;;;;;;;;;5001265;28;20184;-64
2022/09/25 09:48:01;;;;;;;4.43;3.07;;;;;;;;;;4960095;28;20327;-63
2022/09/25 09:50:29;;;;;;;4.17;3.20;;;;;;;;;;5000219;28;20224;-64
2022/09/25 09:53:00;;;;;;;3.30;2.93;;;;;;;;;;5003188;28;20258;-62
2022/09/25 09:55:34;;;;;;;3.10;2.80;;;;;;;;;;5000800;28;20251;-63
2022/09/25 09:58:05;;;;;;;4.47;3.50;;;;;;;;;;5001194;28;20307;-63
2022/09/25 10:00:33;;;;;;;7.63;3.63;;;;;;;;;;5016090;28;20210;-62
2022/09/25 10:03:02;;;;;;;4.50;4.10;;;;;;;;;;5017890;28;20184;-61
2022/09/25 10:05:40;;;;;;;4.37;3.70;;;;;;;;;;5001788;28;20284;-61
2022/09/25 10:08:12;;;;;;;3.57;2.97;;;;;;;;;;5003282;28;20208;-63
2022/09/25 10:10:42;;;;;;;4.83;3.00;;;;;;;;;;5000944;28;20568;-62
2022/09/25 10:13:19;;;;;;;4.60;3.50;;;;;;;;;;5002621;28;20254;-62
2022/09/25 10:15:47;;;;;;;5.70;3.93;;;;;;;;;;5005053;28;20203;-62
2022/09/25 10:18:14;;;;;;;4.97;3.80;;;;;;;;;;5002988;28;20204;-63
2022/09/25 10:20:43;;;;;;;4.40;4.00;;;;;;;;;;5017367;28;20258;-63
2022/09/25 10:23:31;;;;;;;5.80;4.90;;;;;;;;;;5003860;28;20319;-63
2022/09/25 10:25:58;;;;;;;7.07;4.40;;;;;;;;;;4998638;28;20646;-63
2022/09/25 10:28:29;;;;;;;6.47;4.90;;;;;;;;;;5001888;28;20593;-63
2022/09/25 10:30:55;;;;;;;5.30;4.80;;;;;;;;;;5003421;28;20239;-64
2022/09/25 10:33:23;;;;;;;6.37;4.97;;;;;;;;;;5010105;28;20232;-63
2022/09/25 10:35:55;;;;;;;5.70;4.63;;;;;;;;;;5012058;28;20196;-63
2022/09/25 10:38:26;;;;;;;4.57;4.13;;;;;;;;;;5009089;28;20335;-63
2022/09/25 10:41:02;;;;;;;3.93;3.30;;;;;;;;;;4991854;28;20201;-63
2022/09/25 10:43:29;;;;;;;5.33;3.97;;;;;;;;;;4987023;28;20672;-63
2022/09/25 10:46:14;;;;;;;4.30;3.60;;;;;;;;;;5003628;28;20188;-63
2022/09/25 10:51:27;;;;;;;3.90;3.60;;;;;;;;;;4991324;28;20604;-63
2022/09/25 10:54:09;;;;;;;3.97;3.53;;;;;;;;;;4990534;28;20204;-64
2022/09/25 10:56:37;;;;;;;4.70;3.27;;;;;;;;;;4982440;28;20790;-64
2022/09/25 10:59:16;;;;;;;3.20;2.90;;;;;;;;;;4986437;28;20189;-64
2022/09/25 11:01:44;;;;;;;4.20;3.80;;;;;;;;;;4986728;28;20189;-64
2022/09/25 11:04:17;;;;;;;4.60;3.70;;;;;;;;;;4997661;28;20263;-64
2022/09/25 11:06:45;;;;;;;5.30;4.30;;;;;;;;;;4990192;28;20192;-66
2022/09/25 11:09:14;;;;;;;3.67;3.23;;;;;;;;;;4979753;28;20196;-66
2022/09/25 11:11:40;;;;;;;5.90;3.83;;;;;;;;;;5004426;28;20196;-68
2022/09/25 11:14:17;;;;;;;4.73;3.10;;;;;;;;;;4989814;28;20689;-67
2022/09/25 11:16:45;;;;;;;4.37;3.20;;;;;;;;;;5005026;28;20259;-68
2022/09/25 11:19:14;;;;;;;3.90;3.00;;;;;;;;;;5001590;28;20189;-68
2022/09/25 11:21:46;;;;;;;3.40;3.10;;;;;;;;;;4988513;28;20189;-68
2022/09/25 11:24:24;;;;;;;6.87;3.50;;;;;;;;;;4989879;28;20665;-68
2022/09/25 11:27:09;;;;;;;4.83;3.77;;;;;;;;;;4988550;28;20200;-68
2022/09/25 11:29:37;;;;;;;4.40;3.40;;;;;;;;;;4982435;28;20266;-68
2022/09/25 11:32:05;;;;;;;5.23;3.87;;;;;;;;;;4999025;28;20287;-68
2022/09/25 11:34:53;;;;;;;5.60;4.23;;;;;;;;;;5028024;28;20294;-68
2022/09/25 11:37:26;;;;;;;4.73;3.83;;;;;;;;;;5018422;28;20195;-68
2022/09/25 11:43:03;;;;;;;5.00;3.00;;;;;;;;;;5028286;28;20286;-69
2022/09/25 11:45:35;;;;;;;3.40;3.10;;;;;;;;;;5028964;28;20183;-68
2022/09/25 11:48:04;;;;;;;3.37;3.07;;;;;;;;;;5025993;28;20195;-68
2022/09/25 11:50:50;;;;;;;5.07;3.50;;;;;;;;;;5022035;28;20207;-68
2022/09/25 11:53:32;;;;;;;4.57;3.57;;;;;;;;;;5013289;28;20198;-69
2022/09/25 11:56:01;;;;;;;3.40;3.10;;;;;;;;;;5027585;28;20199;-68
2022/09/25 11:58:32;;;;;;;3.73;3.40;;;;;;;;;;5018909;28;20183;-66
2022/09/25 12:01:00;;;;;;;3.60;3.13;;;;;;;;;;5030457;28;20257;-68
2022/09/25 12:03:40;;;;;;;4.17;3.53;;;;;;;;;;5024590;28;20203;-67
2022/09/25 12:06:26;;;;;;;3.90;3.50;;;;;;;;;;5036675;28;20191;-67
2022/09/25 12:08:56;;;;;;;4.20;3.37;;;;;;;;;;5029129;28;20249;-67
2022/09/25 12:11:23;;;;;;;3.40;3.10;;;;;;;;;;5028865;28;20694;-67
2022/09/25 12:13:55;;;;;;;3.57;3.13;;;;;;;;;;5028898;28;20195;-67
2022/09/25 12:16:38;;;;;;;4.27;3.30;;;;;;;;;;5037168;28;20191;-67
2022/09/25 12:19:23;;;;;;;3.40;2.70;;;;;;;;;;5027121;28;20234;-67
2022/09/25 12:21:52;;;;;;;4.60;3.03;;;;;;;;;;5019713;28;20646;-67
2022/09/25 12:24:35;;;;;;;4.80;3.10;;;;;;;;;;5020515;28;20249;-67
2022/09/25 12:27:25;;;;;;;3.87;3.20;;;;;;;;;;5028605;28;20205;-68
2022/09/25 12:29:53;;;;;;;4.87;2.90;;;;;;;;;;5029738;28;20368;-64
2022/09/25 12:32:24;;;;;;;3.87;2.90;;;;;;;;;;5026113;28;20257;-68
2022/09/25 12:35:06;;;;;;;3.00;2.70;;;;;;;;;;5040833;28;20192;-66
2022/09/25 12:37:42;;;;;;;3.60;3.17;;;;;;;;;;5027847;28;20171;-65
2022/09/25 12:40:14;;;;;;;3.77;3.00;;;;;;;;;;5015098;28;20270;-67
2022/09/25 12:43:02;;;;;;;3.63;3.30;;;;;;;;;;5026698;28;20198;-66
2022/09/25 12:45:30;;;;;;;4.63;3.30;;;;;;;;;;5029779;28;20187;-67
2022/09/25 12:48:00;;;;;;;3.67;3.30;;;;;;;;;;5032493;28;20192;-67
2022/09/25 12:50:29;;;;;;;4.40;3.47;;;;;;;;;;5030534;28;20218;-67
2022/09/25 12:53:09;;;;;;;4.93;3.67;;;;;;;;;;5045204;28;20618;-67
2022/09/25 12:55:46;;;;;;;6.20;4.17;;;;;;;;;;5032111;28;20606;-67
2022/09/25 12:58:20;;;;;;;7.77;3.97;;;;;;;;;;5031226;28;20277;-66
2022/09/25 13:00:48;;;;;;;4.13;3.73;;;;;;;;;;5029143;28;20254;-66
2022/09/25 13:03:50;;;;;;;6.73;3.73;;;;;;;;;;5001158;28;20222;-66
2022/09/25 13:06:41;;;;;;;7.40;4.30;;;;;;;;;;4984021;28;20173;-66
2022/09/25 13:09:47;;;;;;;5.87;4.03;;;;;;;;;;5024010;28;20203;-65
2022/09/25 13:12:18;;;;;;;6.03;3.90;;;;;;;;;;4975335;28;20200;-66
2022/09/25 13:14:51;;;;;;;5.97;4.50;;;;;;;;;;4973357;28;20240;-67
2022/09/25 13:17:18;;;;;;;5.60;4.50;;;;;;;;;;5009586;28;20794;-67
2022/09/25 13:19:44;;;;;;;6.97;4.93;;;;;;;;;;5031970;28;20222;-65
2022/09/25 13:22:24;;;;;;;15.30;12.60;;;;;;;;;;5030796;28;20228;-65
2022/09/25 13:24:51;;;;;;;8.40;6.40;;;;;;;;;;5030138;28;20199;-65
2022/09/25 13:27:21;;;;;;;7.30;4.00;;;;;;;;;;5027660;28;20771;-65
2022/09/25 13:29:52;;;;;;;9.73;7.93;;;;;;;;;;5029647;28;20203;-65
2022/09/25 13:32:19;;;;;;;9.03;6.27;;;;;;;;;;5027697;28;20250;-64
2022/09/25 13:34:46;;;;;;;8.87;6.70;;;;;;;;;;5029939;28;20179;-64
2022/09/25 13:37:13;;;;;;;11.17;7.00;;;;;;;;;;5021526;28;20249;-63
2022/09/25 13:42:37;;;;;;;8.33;3.77;;;;;;;;;;5032065;28;20245;-64
2022/09/25 13:45:16;;;;;;;79.73;38.07;;;;;;;;;;5032271;28;20187;-64
2022/09/25 13:48:04;;;;;;;9.13;4.10;;;;;;;;;;5027948;28;20233;-64
2022/09/25 13:50:40;;;;;;;6.90;4.10;;;;;;;;;;5005971;28;20255;-64
2022/09/25 13:53:16;;;;;;;8.07;5.33;;;;;;;;;;5032008;28;20674;-64
2022/09/25 13:55:46;;;;;;;8.13;4.60;;;;;;;;;;5015509;28;20191;-64
2022/09/25 13:58:16;;;;;;;6.03;4.40;;;;;;;;;;5032836;28;20198;-64
2022/09/25 14:00:46;;;;;;;4.27;3.77;;;;;;;;;;5031366;28;20242;-64
2022/09/25 14:03:36;;;;;;;6.30;4.43;;;;;;;;;;5030684;28;20306;-64
2022/09/25 14:06:06;;;;;;;5.73;3.60;;;;;;;;;;5000343;28;20221;-66
2022/09/25 14:08:33;;;;;;;5.53;3.70;;;;;;;;;;5030064;28;20211;-66
2022/09/25 14:11:03;;;;;;;6.13;3.77;;;;;;;;;;5027674;28;20274;-65
2022/09/25 14:13:31;;;;;;;7.20;3.60;;;;;;;;;;5037788;28;20184;-62
2022/09/25 14:15:58;;;;;;;5.43;3.73;;;;;;;;;;5021066;28;20188;-64
2022/09/25 14:18:35;;;;;;;5.50;3.60;;;;;;;;;;5023082;28;20195;-64
2022/09/25 14:21:02;;;;;;;7.57;3.90;;;;;;;;;;5021177;28;20187;-65
2022/09/25 14:23:31;;;;;;;7.17;4.80;;;;;;;;;;5022427;28;20199;-64
2022/09/25 14:26:06;;;;;;;15.00;8.70;;;;;;;;;;5022022;28;20222;-64
2022/09/25 14:28:34;;;;;;;25.83;12.10;;;;;;;;;;5022155;28;20249;-63
2022/09/25 14:31:03;;;;;;;14.20;8.63;;;;;;;;;;5021124;28;20203;-65
2022/09/25 14:33:51;;;;;;;13.60;7.83;;;;;;;;;;5018448;28;20235;-65
2022/09/25 14:36:22;;;;;;;7.83;6.00;;;;;;;;;;5022316;28;20206;-64
2022/09/25 14:38:52;;;;;;;11.00;7.10;;;;;;;;;;5022424;28;20261;-65
2022/09/25 14:41:21;;;;;;;14.50;8.17;;;;;;;;;;5021316;28;20238;-65
2022/09/25 14:43:57;;;;;;;7.53;5.77;;;;;;;;;;5021559;28;20195;-64
2022/09/25 14:46:24;;;;;;;6.60;5.23;;;;;;;;;;5002205;28;20226;-65
2022/09/25 14:48:53;;;;;;;6.83;4.80;;;;;;;;;;5022137;28;20574;-62
2022/09/25 14:51:22;;;;;;;8.50;5.70;;;;;;;;;;5003559;28;20741;-63
2022/09/25 14:53:58;;;;;;;7.97;5.50;;;;;;;;;;5019753;28;21179;-64
2022/09/25 14:56:25;;;;;;;7.60;5.67;;;;;;;;;;5020892;28;20199;-63
2022/09/25 14:58:53;;;;;;;8.10;5.50;;;;;;;;;;5020170;28;20202;-64
2022/09/25 15:01:29;;;;;;;7.37;5.80;;;;;;;;;;5013696;28;20290;-63
2022/09/25 15:04:00;;;;;;;7.47;5.60;;;;;;;;;;5019157;28;20215;-64
2022/09/25 15:06:30;;;;;;;6.13;4.90;;;;;;;;;;5004219;28;20195;-62
2022/09/25 15:08:57;;;;;;;7.20;4.70;;;;;;;;;;5019107;28;20867;-62
2022/09/25 15:11:26;;;;;;;7.57;4.87;;;;;;;;;;5020084;28;20298;-64
2022/09/25 15:13:53;;;;;;;6.00;4.97;;;;;;;;;;5020619;28;20217;-62